Time;durP1;ratioP1;P1;durP2;ratioP2;P2;SDS_P1;SDS_P2;PMS_P1;PMS_P2;Temp;Humidity;BMP_temperature;BMP_pressure;BME280_temperature;BME280_humidity;BME280_pressure;Samples;Min_cycle;Max_cycle;Signal;HPM_P1;HPM_P2
2020/12/27 00:02:09;;;;;;;31.35;9.03;;;;;;;-1.07;75.38;100455.09;120382;1147;23234;-61
2020/12/27 00:04:38;;;;;;;23.73;7.17;;;;;;;-1.05;76.20;100455.47;120322;1148;22857;-62
2020/12/27 00:07:09;;;;;;;24.43;8.00;;;;;;;-1.03;76.17;100444.11;120411;1148;22917;-62
2020/12/27 00:09:40;;;;;;;22.87;7.10;;;;;;;-1.02;76.12;100434.73;120343;1148;22958;-62
2020/12/27 00:12:08;;;;;;;;;;;;;;;-1.02;75.52;100432.77;120142;1148;26415;-62
2020/12/27 00:14:37;;;;;;;22.63;7.13;;;;;;;-1.03;75.91;100428.45;120171;1148;21558;-61
2020/12/27 00:17:08;;;;;;;25.87;9.00;;;;;;;-1.00;76.14;100430.42;120213;1148;27098;-61
2020/12/27 00:19:38;;;;;;;31.83;12.10;;;;;;;-0.99;75.37;100412.78;120167;1148;27279;-62
2020/12/27 00:22:07;;;;;;;40.43;14.80;;;;;;;-0.98;76.10;100410.83;120296;1148;22913;-60
2020/12/27 00:24:37;;;;;;;34.75;12.60;;;;;;;-0.99;75.43;100404.56;120330;1148;22911;-64
2020/12/27 00:27:06;;;;;;;33.57;12.53;;;;;;;-0.99;75.70;100395.55;120350;1148;22897;-63
2020/12/27 00:29:35;;;;;;;40.13;14.00;;;;;;;-0.96;75.34;100381.08;120351;1148;23077;-62
2020/12/27 00:32:04;;;;;;;40.90;14.50;;;;;;;-0.97;75.44;100385.77;120283;1147;26692;-64
2020/12/27 00:34:34;;;;;;;34.87;12.80;;;;;;;-0.95;75.89;100371.66;120398;1147;22933;-61
2020/12/27 00:37:03;;;;;;;36.55;11.70;;;;;;;-0.94;76.23;100365.02;120310;1147;25804;-60
2020/12/27 00:39:32;;;;;;;26.10;9.33;;;;;;;-0.93;75.40;100361.87;120390;1148;23030;-62
2020/12/27 00:42:03;;;;;;;30.57;8.17;;;;;;;-0.98;75.63;100353.29;120303;1148;22916;-60
2020/12/27 00:44:32;;;;;;;27.37;7.97;;;;;;;-1.01;75.48;100365.03;120398;1148;22958;-62
2020/12/27 00:47:01;;;;;;;30.63;9.83;;;;;;;-1.02;75.75;100360.75;120088;1148;23019;-60
2020/12/27 00:49:30;;;;;;;28.73;9.97;;;;;;;-1.06;75.34;100351.77;120082;1148;23009;-62
2020/12/27 00:51:59;;;;;;;31.50;9.67;;;;;;;-1.05;75.63;100362.31;120049;1148;27704;-59
2020/12/27 00:54:28;;;;;;;26.37;8.90;;;;;;;-1.04;76.15;100372.11;120283;1148;22908;-62
2020/12/27 00:56:57;;;;;;;27.15;8.70;;;;;;;-1.03;75.77;100364.65;120038;1148;22948;-60
2020/12/27 00:59:26;;;;;;;26.70;7.70;;;;;;;-1.03;75.91;100346.26;120342;1148;23078;-63
2020/12/27 01:01:56;;;;;;;28.05;8.15;;;;;;;-1.06;75.73;100347.07;120229;1148;22915;-60
2020/12/27 01:04:25;;;;;;;25.90;8.83;;;;;;;-1.11;75.44;100346.69;120392;1147;22893;-61
2020/12/27 01:06:57;;;;;;;26.33;8.33;;;;;;;-1.12;75.74;100350.61;120429;1153;23933;-62
2020/12/27 01:09:27;;;;;;;27.10;8.73;;;;;;;-1.09;76.21;100342.37;120542;1147;26508;-61
2020/12/27 01:11:56;;;;;;;32.93;10.70;;;;;;;-1.08;75.52;100330.25;120344;1148;22965;-62
2020/12/27 01:14:26;;;;;;;28.87;10.13;;;;;;;-1.09;75.98;100333.37;120299;1148;22913;-62
2020/12/27 01:16:55;;;;;;;29.47;9.60;;;;;;;-1.12;76.19;100323.22;120292;1148;24546;-62
2020/12/27 01:19:24;;;;;;;25.23;8.90;;;;;;;-1.17;75.75;100321.67;120240;1147;22916;-60
2020/12/27 01:21:55;;;;;;;27.15;9.05;;;;;;;-1.17;76.23;100321.67;120448;1148;22910;-65
2020/12/27 01:24:24;;;;;;;23.37;8.00;;;;;;;-1.20;75.90;100318.95;120329;1148;22923;-60
2020/12/27 01:26:53;;;;;;;24.03;7.77;;;;;;;-1.19;76.08;100315.81;120317;1148;22944;-59
2020/12/27 01:29:22;;;;;;;25.53;7.90;;;;;;;-1.20;76.06;100308.75;120404;1148;22935;-63
2020/12/27 01:31:51;;;;;;;18.93;6.43;;;;;;;-1.25;76.13;100291.97;120282;1148;22942;-62
2020/12/27 01:34:22;;;;;;;20.27;6.93;;;;;;;-1.26;75.88;100287.68;120246;1148;22926;-61
2020/12/27 01:36:50;;;;;;;23.60;6.83;;;;;;;-1.23;75.85;100292.34;120208;1148;24557;-60
2020/12/27 01:39:20;;;;;;;17.55;5.75;;;;;;;-1.23;75.82;100284.92;120357;1145;23032;-61
2020/12/27 01:41:52;;;;;;;20.40;4.80;;;;;;;-1.20;76.27;100275.13;120258;1148;22942;-61
2020/12/27 01:44:21;;;;;;;28.00;7.83;;;;;;;-1.18;76.08;100273.53;120300;1148;27319;-62
2020/12/27 01:46:50;;;;;;;19.55;7.40;;;;;;;-1.19;75.97;100271.19;120270;1148;22921;-63
2020/12/27 01:49:19;;;;;;;29.03;10.87;;;;;;;-1.20;76.21;100272.39;120284;1148;22938;-63
2020/12/27 01:51:48;;;;;;;46.23;16.50;;;;;;;-1.21;75.72;100273.55;120348;1148;22992;-61
2020/12/27 01:54:17;;;;;;;43.50;13.90;;;;;;;-1.20;76.16;100278.63;120234;1148;22995;-60
2020/12/27 01:56:50;;;;;;;35.93;12.10;;;;;;;-1.15;76.78;100264.52;120304;1148;22935;-60
2020/12/27 01:59:27;;;;;;;52.77;17.20;;;;;;;-1.12;76.22;100271.92;120309;1148;24248;-63
2020/12/27 02:01:57;;;;;;;82.30;25.73;;;;;;;-1.13;76.40;100261.37;120372;1148;23319;-62
2020/12/27 02:04:27;;;;;;;100.30;29.83;;;;;;;-1.18;75.66;100257.09;120381;1147;22912;-61
2020/12/27 02:06:58;;;;;;;92.77;28.60;;;;;;;-1.17;76.63;100246.92;120452;1148;22910;-60
2020/12/27 02:09:27;;;;;;;89.80;28.40;;;;;;;-1.22;76.59;100248.11;120641;1148;29066;-62
2020/12/27 02:12:06;;;;;;;81.20;24.00;;;;;;;-1.22;76.37;100241.88;120345;1148;27260;-61
2020/12/27 02:14:37;;;;;;;86.70;24.17;;;;;;;-1.24;76.07;100241.50;120350;1148;22992;-61
2020/12/27 02:17:07;;;;;;;56.37;16.85;;;;;;;-1.29;75.84;100237.21;120307;1147;22977;-64
2020/12/27 02:19:36;;;;;;;45.83;13.05;;;;;;;-1.29;75.76;100239.16;120147;1148;22945;-61
2020/12/27 02:22:05;;;;;;;37.45;9.45;;;;;;;-1.30;76.15;100238.38;120255;1147;27223;-64
2020/12/27 02:24:34;;;;;;;26.63;8.00;;;;;;;-1.31;76.61;100225.09;120059;1148;22941;-61
2020/12/27 02:27:06;;;;;;;20.87;5.23;;;;;;;-1.35;76.12;100225.12;120050;1148;23067;-61
2020/12/27 02:29:36;;;;;;;18.50;5.03;;;;;;;-1.35;76.60;100224.33;120285;1148;22926;-61
2020/12/27 02:32:05;;;;;;;16.52;5.03;;;;;;;-1.35;75.91;100211.42;120145;1149;22926;-64
2020/12/27 02:34:34;;;;;;;18.90;4.60;;;;;;;-1.34;76.01;100202.02;120103;1148;22961;-62
2020/12/27 02:37:04;;;;;;;17.73;4.57;;;;;;;-1.32;75.81;100207.88;120149;1150;23097;-60
2020/12/27 02:39:33;;;;;;;22.00;5.33;;;;;;;-1.28;76.15;100196.92;120192;1150;22982;-60
2020/12/27 02:42:03;;;;;;;21.40;5.03;;;;;;;-1.31;75.83;100189.48;120096;1150;22933;-61
2020/12/27 02:47:07;;;;;;;20.33;5.03;;;;;;;-1.37;75.70;100171.92;120154;1148;22941;-61
2020/12/27 02:49:36;;;;;;;17.87;4.60;;;;;;;-1.36;76.31;100165.25;120174;1148;24762;-64
2020/12/27 02:52:05;;;;;;;33.47;11.17;;;;;;;-1.37;76.42;100159.02;120061;1151;24715;-63
2020/12/27 02:54:34;;;;;;;33.60;12.80;;;;;;;-1.35;76.38;100153.92;120084;1148;23471;-60
2020/12/27 02:57:03;;;;;;;21.73;7.00;;;;;;;-1.39;76.73;100155.91;120226;1148;22923;-60
2020/12/27 02:59:32;;;;;;;18.77;5.13;;;;;;;-1.39;76.71;100158.64;120074;1148;25772;-62
2020/12/27 03:02:01;;;;;;;15.40;4.07;;;;;;;-1.40;75.88;100159.02;119966;1148;22977;-60
2020/12/27 03:04:31;;;;;;;15.50;4.40;;;;;;;-1.40;76.67;100151.59;119927;1148;27385;-62
2020/12/27 03:07:00;;;;;;;23.50;4.65;;;;;;;-1.38;75.97;100160.19;120549;1147;22923;-62
2020/12/27 03:09:29;;;;;;;22.80;5.57;;;;;;;-1.37;76.88;100141.80;119974;1148;22948;-62
2020/12/27 03:12:00;;;;;;;23.57;5.23;;;;;;;-1.38;76.72;100137.49;120074;1148;23087;-61
2020/12/27 03:14:29;;;;;;;16.20;4.70;;;;;;;-1.41;76.50;100130.88;120081;1148;22975;-62
2020/12/27 03:16:59;;;;;;;19.85;4.85;;;;;;;-1.40;76.03;100124.21;119931;1148;22925;-62
2020/12/27 03:19:28;;;;;;;15.20;3.40;;;;;;;-1.41;76.13;100122.67;120081;1148;22948;-62
2020/12/27 03:21:57;;;;;;;14.50;3.30;;;;;;;-1.43;76.68;100113.29;120372;1148;23064;-63
2020/12/27 03:24:26;;;;;;;12.05;2.70;;;;;;;-1.46;76.90;100109.39;120071;1148;22948;-62
2020/12/27 03:26:56;;;;;;;12.30;2.83;;;;;;;-1.49;76.70;100096.48;120226;1148;22995;-61
2020/12/27 03:29:25;;;;;;;15.75;3.25;;;;;;;-1.52;76.32;100097.30;120296;1148;22993;-62
2020/12/27 03:31:54;;;;;;;13.37;2.87;;;;;;;-1.52;76.90;100100.05;120276;1148;23012;-62
2020/12/27 03:34:23;;;;;;;13.40;2.70;;;;;;;-1.53;76.39;100095.73;120295;1148;27793;-61
2020/12/27 03:36:55;;;;;;;13.90;3.05;;;;;;;-1.53;76.83;100089.50;120231;1148;25859;-63
2020/12/27 03:39:24;;;;;;;11.80;3.00;;;;;;;-1.53;76.91;100082.05;120363;1148;25340;-61
2020/12/27 03:41:53;;;;;;;12.60;2.70;;;;;;;-1.54;76.05;100072.30;120369;1148;24559;-62
2020/12/27 03:44:22;;;;;;;10.13;2.00;;;;;;;-1.53;76.77;100070.34;120300;1148;22999;-61
2020/12/27 03:46:51;;;;;;;11.20;2.60;;;;;;;-1.54;76.02;100064.08;120221;1148;26088;-62
2020/12/27 03:49:20;;;;;;;12.07;1.97;;;;;;;-1.52;76.08;100063.67;120199;1148;26098;-62
2020/12/27 03:51:50;;;;;;;8.07;1.67;;;;;;;-1.50;76.09;100059.36;120024;1148;24726;-62
2020/12/27 03:54:19;;;;;;;11.85;2.10;;;;;;;-1.47;75.85;100058.56;120264;1147;22948;-60
2020/12/27 03:56:48;;;;;;;10.17;2.20;;;;;;;-1.46;76.56;100049.16;120058;1148;22916;-63
2020/12/27 03:59:17;;;;;;;12.27;1.87;;;;;;;-1.46;76.72;100040.16;120070;1148;22941;-62
2020/12/27 04:01:46;;;;;;;14.07;2.37;;;;;;;-1.44;76.11;100040.53;120265;1148;22945;-63
2020/12/27 04:04:15;;;;;;;5.10;1.30;;;;;;;-1.43;76.51;100037.41;120198;1147;22931;-61
2020/12/27 04:06:44;;;;;;;10.15;2.00;;;;;;;-1.40;76.18;100041.28;120187;1148;22949;-62
2020/12/27 04:09:13;;;;;;;7.87;1.67;;;;;;;-1.42;75.76;100036.22;120346;1148;22949;-61
2020/12/27 04:11:42;;;;;;;8.43;2.10;;;;;;;-1.38;75.84;100030.70;120230;1148;22997;-62
2020/12/27 04:14:12;;;;;;;8.45;1.60;;;;;;;-1.37;75.41;100026.80;120375;1148;22941;-60
2020/12/27 04:16:41;;;;;;;10.60;2.00;;;;;;;-1.36;76.41;100015.44;120110;1148;22941;-62
2020/12/27 04:19:10;;;;;;;10.95;1.85;;;;;;;-1.35;76.34;100017.00;120482;1147;27698;-61
2020/12/27 04:21:42;;;;;;;9.13;1.70;;;;;;;-1.34;75.21;100017.76;120297;1148;24752;-60
2020/12/27 04:24:11;;;;;;;6.83;1.40;;;;;;;-1.34;75.40;100015.81;120304;1148;22966;-60
2020/12/27 04:26:40;;;;;;;8.13;1.70;;;;;;;-1.35;75.69;100008.79;120086;1148;22941;-62
2020/12/27 04:29:10;;;;;;;9.93;2.03;;;;;;;-1.33;75.77;100009.16;120222;1148;22916;-62
2020/12/27 04:31:40;;;;;;;8.10;1.90;;;;;;;-1.31;75.67;99995.84;120265;1148;22988;-62
2020/12/27 04:34:09;;;;;;;8.00;1.80;;;;;;;-1.29;75.29;99996.22;120157;1148;26462;-62
2020/12/27 04:36:38;;;;;;;11.45;1.55;;;;;;;-1.30;75.15;99983.69;120280;1148;22924;-61
2020/12/27 04:39:07;;;;;;;9.50;1.67;;;;;;;-1.29;75.83;99990.73;120107;1148;22923;-62
2020/12/27 04:41:36;;;;;;;10.25;1.90;;;;;;;-1.29;75.56;99982.52;120192;1148;22915;-62
2020/12/27 04:44:06;;;;;;;8.40;1.60;;;;;;;-1.31;75.91;99981.37;120061;1148;24597;-63
2020/12/27 04:46:40;;;;;;;13.47;1.90;;;;;;;-1.32;75.63;99977.84;120281;1148;22935;-62
2020/12/27 04:49:10;;;;;;;9.07;1.93;;;;;;;-1.36;75.95;99987.27;120254;1148;23910;-62
2020/12/27 04:51:39;;;;;;;10.47;1.97;;;;;;;-1.39;75.37;99977.92;120425;1148;23066;-62
2020/12/27 04:54:10;;;;;;;14.13;2.93;;;;;;;-1.41;75.33;99980.29;120370;1148;22920;-61
2020/12/27 04:56:42;;;;;;;15.40;2.90;;;;;;;-1.43;76.07;99968.97;120250;1148;23003;-63
2020/12/27 04:59:12;;;;;;;13.97;2.73;;;;;;;-1.43;75.61;99970.92;120190;1148;22955;-62
2020/12/27 05:01:42;;;;;;;11.12;2.80;;;;;;;-1.44;75.40;99963.87;120311;1148;23421;-62
2020/12/27 05:04:11;;;;;;;9.75;2.40;;;;;;;-1.45;75.77;99956.86;120187;1148;27288;-60
2020/12/27 05:06:40;;;;;;;14.77;2.90;;;;;;;-1.47;75.94;99954.53;120310;1147;22959;-60
2020/12/27 05:09:09;;;;;;;12.65;2.75;;;;;;;-1.49;76.27;99959.60;120359;1148;22924;-62
2020/12/27 05:11:38;;;;;;;13.97;2.80;;;;;;;-1.51;75.32;99961.97;120138;1148;22916;-60
2020/12/27 05:14:07;;;;;;;17.40;4.00;;;;;;;-1.53;76.01;99966.31;120050;1148;22926;-61
2020/12/27 05:16:37;;;;;;;15.93;3.23;;;;;;;-1.53;76.18;99958.10;120221;1148;23505;-64
2020/12/27 05:19:06;;;;;;;13.20;2.72;;;;;;;-1.56;75.22;99956.95;120037;1148;22941;-62
2020/12/27 05:21:37;;;;;;;14.27;2.77;;;;;;;-1.57;75.76;99954.63;120224;1148;22929;-62
2020/12/27 05:24:07;;;;;;;13.85;3.50;;;;;;;-1.58;75.92;99953.05;120197;1148;27603;-63
2020/12/27 05:26:39;;;;;;;16.73;3.52;;;;;;;-1.58;75.45;99953.05;120080;1148;23015;-62
2020/12/27 05:29:09;;;;;;;13.47;3.07;;;;;;;-1.59;76.23;99941.31;120422;1148;22962;-60
2020/12/27 05:31:39;;;;;;;13.35;3.15;;;;;;;-1.58;76.16;99939.36;120324;1147;22941;-63
2020/12/27 05:34:18;;;;;;;14.93;3.12;;;;;;;-1.62;75.21;99931.19;120350;1148;23006;-62
2020/12/27 05:36:48;;;;;;;13.43;2.90;;;;;;;-1.63;75.98;99934.34;120109;1148;22920;-63
2020/12/27 05:39:17;;;;;;;14.40;3.17;;;;;;;-1.62;76.44;99927.67;120095;1148;23022;-61
2020/12/27 05:41:46;;;;;;;11.45;2.55;;;;;;;-1.66;75.98;99931.23;120203;1148;23003;-62
2020/12/27 05:44:19;;;;;;;13.57;3.27;;;;;;;-1.68;75.62;99927.34;120237;1148;22945;-60
2020/12/27 05:46:49;;;;;;;11.70;2.80;;;;;;;-1.68;76.13;99919.13;120093;1148;23021;-62
2020/12/27 05:49:18;;;;;;;;;;;;;;;-1.70;75.88;99922.25;120224;1148;22916;-60
2020/12/27 05:51:52;;;;;;;12.83;2.47;;;;;;;-1.70;75.75;99918.75;120447;1148;21694;-61
2020/12/27 05:54:30;;;;;;;13.20;2.80;;;;;;;-1.70;76.08;99918.75;120131;1147;22928;-61
2020/12/27 05:57:01;;;;;;;18.20;2.90;;;;;;;-1.71;75.39;99914.45;120141;1148;23089;-62
2020/12/27 05:59:34;;;;;;;15.03;3.30;;;;;;;-1.73;75.58;99916.81;120282;1148;22922;-61
2020/12/27 06:02:04;;;;;;;11.57;3.47;;;;;;;-1.78;76.07;99901.60;120257;1148;22916;-60
2020/12/27 06:05:04;;;;;;;13.88;2.95;;;;;;;-1.77;75.65;99907.86;120167;1148;24595;-63
2020/12/27 06:07:38;;;;;;;16.00;2.73;;;;;;;-1.80;75.37;99903.21;120362;1151;23041;-61
2020/12/27 06:10:13;;;;;;;15.50;3.00;;;;;;;-1.83;75.75;99899.31;120104;1149;22935;-60
2020/12/27 06:13:26;;;;;;;15.75;3.00;;;;;;;-1.85;75.42;99884.48;119969;1150;23170;-62
2020/12/27 06:15:58;;;;;;;16.87;3.53;;;;;;;-1.85;76.19;99893.47;120078;1150;23023;-59
2020/12/27 06:18:29;;;;;;;15.67;3.83;;;;;;;-1.86;76.00;99896.59;120027;1150;22943;-62
2020/12/27 06:21:11;;;;;;;;;;;;;;;-1.85;75.78;99895.42;120187;1149;22926;-62
2020/12/27 06:23:45;;;;;;;16.17;4.23;;;;;;;-1.87;75.96;99904.05;120105;1150;21791;-63
2020/12/27 06:26:14;;;;;;;16.40;3.87;;;;;;;-1.88;75.99;99897.00;120050;1150;23023;-62
2020/12/27 06:28:46;;;;;;;15.27;3.47;;;;;;;-1.89;75.83;99894.67;119958;1150;27263;-62
2020/12/27 06:31:20;;;;;;;19.57;4.90;;;;;;;-1.90;75.66;99893.11;119975;1150;26194;-62
2020/12/27 06:33:50;;;;;;;18.30;4.50;;;;;;;-1.88;75.77;99894.27;120080;1150;23170;-60
2020/12/27 06:36:32;;;;;;;22.90;5.27;;;;;;;-1.87;74.94;99884.89;120185;1150;22954;-59
2020/12/27 06:39:21;;;;;;;13.90;3.10;;;;;;;-1.85;75.46;99895.42;120162;1149;24135;-61
2020/12/27 06:42:06;;;;;;;14.20;2.37;;;;;;;-1.82;75.54;99884.44;120066;1151;22939;-60
2020/12/27 06:44:44;;;;;;;16.20;3.30;;;;;;;-1.84;75.65;99883.28;120126;1148;22966;-60
2020/12/27 06:47:14;;;;;;;19.43;3.60;;;;;;;-1.84;75.43;99881.33;120225;1148;22922;-59
2020/12/27 06:49:44;;;;;;;12.25;2.70;;;;;;;-1.84;74.24;99872.34;120303;1147;22916;-61
2020/12/27 06:52:20;;;;;;;14.68;3.15;;;;;;;-1.83;74.71;99865.70;120200;1147;27387;-64
2020/12/27 06:54:51;;;;;;;19.07;4.43;;;;;;;-1.81;74.37;99866.86;120289;1148;23006;-62
2020/12/27 06:57:39;;;;;;;18.82;3.25;;;;;;;-1.81;74.30;99864.13;120188;1148;22917;-61
2020/12/27 07:00:22;;;;;;;16.23;2.97;;;;;;;-1.79;75.19;99864.49;120229;1148;22941;-62
2020/12/27 07:03:07;;;;;;;14.73;3.00;;;;;;;-1.77;75.30;99859.39;120280;1147;22913;-62
2020/12/27 07:05:38;;;;;;;14.25;3.80;;;;;;;-1.77;75.31;99842.97;120348;1148;22965;-61
2020/12/27 07:08:10;;;;;;;16.17;4.47;;;;;;;-1.76;74.94;99849.23;120263;1148;22917;-63
2020/12/27 07:10:42;;;;;;;16.23;3.23;;;;;;;-1.76;74.72;99846.49;120247;1148;22872;-61
2020/12/27 07:13:13;;;;;;;15.17;2.93;;;;;;;-1.74;74.59;99850.35;120310;1148;26347;-61
2020/12/27 07:15:51;;;;;;;;;;;;;;;-1.71;74.98;99837.83;120238;1148;22989;-62
2020/12/27 07:18:25;;;;;;;15.27;2.70;;;;;;;-1.68;74.01;99837.03;120385;1147;21556;-63
2020/12/27 07:20:57;;;;;;;18.20;3.95;;;;;;;-1.62;74.04;99838.14;120297;1148;22914;-62
2020/12/27 07:23:30;;;;;;;14.50;3.05;;;;;;;-1.56;73.87;99839.25;120432;1148;22966;-60
2020/12/27 07:26:00;;;;;;;11.37;2.43;;;;;;;-1.54;74.38;99823.19;120346;1147;22923;-62
2020/12/27 07:28:31;;;;;;;13.15;2.20;;;;;;;-1.53;74.28;99827.47;120161;1148;27259;-61
2020/12/27 07:31:02;;;;;;;15.50;3.13;;;;;;;-1.49;74.16;99806.30;120378;1147;22923;-63
2020/12/27 07:33:33;;;;;;;17.70;3.85;;;;;;;-1.46;73.80;99810.97;120393;1148;22938;-60
2020/12/27 07:36:05;;;;;;;20.13;4.60;;;;;;;-1.43;74.48;99812.13;120358;1147;24719;-60
2020/12/27 07:38:59;;;;;;;24.00;6.65;;;;;;;-1.47;74.70;99809.44;120297;1148;25208;-60
2020/12/27 07:41:31;;;;;;;22.90;7.25;;;;;;;-1.48;74.62;99823.51;120355;1148;22948;-63
2020/12/27 07:44:01;;;;;;;26.33;7.23;;;;;;;-1.52;74.84;99817.30;120353;1147;27580;-60
2020/12/27 07:46:30;;;;;;;23.80;7.00;;;;;;;-1.55;75.16;99807.94;120304;1147;23002;-59
2020/12/27 07:49:00;;;;;;;21.87;6.37;;;;;;;-1.55;74.86;99805.20;120257;1147;22924;-61
2020/12/27 07:51:30;;;;;;;22.73;7.37;;;;;;;-1.56;75.41;99803.66;120258;1148;22938;-61
2020/12/27 07:53:59;;;;;;;22.22;6.90;;;;;;;-1.57;75.03;99793.88;120320;1148;22922;-61
2020/12/27 07:56:28;;;;;;;26.80;7.80;;;;;;;-1.59;74.55;99788.04;120057;1148;22939;-61
2020/12/27 07:58:59;;;;;;;31.15;8.28;;;;;;;-1.57;74.51;99780.20;120112;1148;23460;-61
2020/12/27 08:01:31;;;;;;;21.80;6.30;;;;;;;-1.57;74.64;99782.94;121534;1147;22941;-60
2020/12/27 08:04:01;;;;;;;23.00;7.35;;;;;;;-1.56;75.51;99773.55;119971;1147;22913;-61
2020/12/27 08:06:33;;;;;;;21.90;6.97;;;;;;;-1.53;75.75;99769.23;120203;1148;25970;-62
2020/12/27 08:09:04;;;;;;;23.60;6.43;;;;;;;-1.50;75.64;99769.17;120268;1147;22916;-61
2020/12/27 08:11:34;;;;;;;20.60;7.93;;;;;;;-1.47;75.04;99764.85;121778;1147;22930;-61
2020/12/27 08:14:06;;;;;;;23.98;7.42;;;;;;;-1.46;75.44;99755.44;120355;1148;22982;-62
2020/12/27 08:16:38;;;;;;;28.43;9.07;;;;;;;-1.47;75.49;99749.20;120257;1147;22910;-60
2020/12/27 08:19:09;;;;;;;29.43;9.67;;;;;;;-1.46;75.37;99741.75;120270;1148;22920;-61
2020/12/27 08:21:41;;;;;;;36.23;12.07;;;;;;;-1.45;75.57;99746.05;120173;1148;22917;-61
2020/12/27 08:24:12;;;;;;;45.07;15.03;;;;;;;-1.44;74.63;99747.59;120290;1148;22991;-62
2020/12/27 08:26:43;;;;;;;44.07;14.13;;;;;;;-1.46;75.08;99748.01;120215;1148;22933;-60
2020/12/27 08:29:17;;;;;;;32.97;10.13;;;;;;;-1.44;75.11;99742.90;120285;1147;22932;-61
2020/12/27 08:31:47;;;;;;;33.17;9.87;;;;;;;-1.43;75.55;99733.52;120347;1147;27300;-61
2020/12/27 08:34:18;;;;;;;34.17;12.13;;;;;;;-1.40;74.90;99742.84;120041;1148;22916;-60
2020/12/27 08:36:49;;;;;;;29.83;10.20;;;;;;;-1.39;75.48;99742.45;120015;1148;26072;-62
2020/12/27 08:39:23;;;;;;;25.75;8.30;;;;;;;-1.37;75.04;99742.03;120187;1148;23078;-62
2020/12/27 08:42:02;;;;;;;30.75;11.40;;;;;;;-1.36;75.73;99741.62;120185;1148;23134;-60
2020/12/27 08:44:41;;;;;;;25.47;10.00;;;;;;;-1.32;75.86;99725.92;120021;1148;22969;-60
2020/12/27 08:47:26;;;;;;;28.90;9.80;;;;;;;-1.28;75.69;99723.91;120274;1147;22966;-61
2020/12/27 08:50:03;;;;;;;24.53;8.53;;;;;;;-1.24;75.27;99721.89;120016;1150;22919;-59
2020/12/27 08:52:34;;;;;;;24.70;9.00;;;;;;;-1.22;75.76;99727.73;120235;1148;22915;-62
2020/12/27 08:55:05;;;;;;;26.40;9.08;;;;;;;-1.19;75.42;99721.45;120078;1147;23506;-60
2020/12/27 08:57:36;;;;;;;25.10;8.17;;;;;;;-1.16;74.97;99723.34;120287;1148;23077;-62
2020/12/27 09:00:10;;;;;;;21.47;7.33;;;;;;;-1.13;74.73;99711.58;120294;1148;22920;-62
2020/12/27 09:02:41;;;;;;;22.95;8.80;;;;;;;-1.09;75.57;99717.00;120345;1148;25992;-60
2020/12/27 09:05:12;;;;;;;26.27;9.07;;;;;;;-1.06;74.83;99708.75;120210;1148;22939;-61
2020/12/27 09:07:42;;;;;;;25.55;8.70;;;;;;;-1.02;75.10;99712.20;120476;1147;23077;-60
2020/12/27 09:10:14;;;;;;;20.90;6.77;;;;;;;-0.98;74.68;99707.45;120110;1147;23080;-61
2020/12/27 09:12:57;;;;;;;20.80;6.17;;;;;;;-0.94;74.94;99702.69;120507;1147;22871;-61
2020/12/27 09:15:29;;;;;;;21.95;6.70;;;;;;;-0.88;74.48;99689.28;120422;1148;22924;-62
2020/12/27 09:18:04;;;;;;;21.50;6.37;;;;;;;-0.84;75.41;99693.53;120242;1148;24547;-61
2020/12/27 09:20:34;;;;;;;20.23;5.93;;;;;;;-0.79;75.34;99689.55;120305;1148;22951;-61
2020/12/27 09:23:13;;;;;;;24.67;7.67;;;;;;;-0.75;74.75;99689.48;120415;1147;25973;-62
2020/12/27 09:25:43;;;;;;;24.83;7.83;;;;;;;-0.70;74.85;99683.54;120179;1148;22948;-61
2020/12/27 09:28:17;;;;;;;24.05;7.00;;;;;;;-0.66;74.55;99684.25;120403;1148;23073;-59
2020/12/27 09:30:58;;;;;;;25.87;7.53;;;;;;;-0.63;74.99;99677.92;120284;1148;23007;-61
2020/12/27 09:33:28;;;;;;;23.07;6.60;;;;;;;-0.60;74.71;99674.36;120222;1148;22910;-62
2020/12/27 09:35:58;;;;;;;21.70;7.13;;;;;;;-0.57;74.20;99677.03;120324;1148;22913;-62
2020/12/27 09:38:29;;;;;;;24.12;7.70;;;;;;;-0.53;75.12;99666.00;120262;1148;22940;-62
2020/12/27 09:41:06;;;;;;;25.55;8.45;;;;;;;-0.49;74.35;99667.48;120233;1147;22894;-62
2020/12/27 09:43:48;;;;;;;30.17;9.50;;;;;;;-0.46;75.16;99663.14;120246;1148;24600;-61
2020/12/27 09:46:44;;;;;;;27.40;9.47;;;;;;;-0.44;74.51;99653.31;120374;1147;22886;-60
2020/12/27 09:49:19;;;;;;;22.57;8.67;;;;;;;-0.40;74.75;99647.75;120270;1148;28390;-61
2020/12/27 09:52:01;;;;;;;27.80;9.50;;;;;;;-0.36;74.53;99645.72;120280;1148;22963;-58
2020/12/27 09:54:32;;;;;;;26.00;8.73;;;;;;;-0.33;74.61;99631.94;120237;1147;22931;-61
2020/12/27 09:57:10;;;;;;;25.53;7.53;;;;;;;-0.29;74.36;99618.17;120170;1148;22914;-63
2020/12/27 09:59:41;;;;;;;;;;;;;;;-0.26;73.85;99614.58;120295;1148;23022;-64
2020/12/27 10:02:11;;;;;;;27.03;7.53;;;;;;;-0.24;74.17;99607.48;120183;1147;21608;-63
2020/12/27 10:04:40;;;;;;;22.10;7.97;;;;;;;-0.20;73.81;99602.70;120403;1147;22923;-63
2020/12/27 10:07:10;;;;;;;22.00;5.77;;;;;;;-0.16;73.39;99597.13;120318;1148;24896;-65
2020/12/27 10:09:40;;;;;;;20.83;4.87;;;;;;;-0.14;73.35;99584.55;120317;1147;22999;-64
2020/12/27 10:12:09;;;;;;;25.00;6.57;;;;;;;-0.09;74.16;99577.80;120278;1147;22920;-64
2020/12/27 10:14:39;;;;;;;16.67;4.08;;;;;;;-0.05;72.95;99578.50;120209;1148;22945;-64
2020/12/27 10:17:10;;;;;;;20.75;4.40;;;;;;;-0.02;73.04;99564.69;120194;1147;22913;-64
2020/12/27 10:19:39;;;;;;;15.35;3.60;;;;;;;0.02;73.00;99558.37;120171;1148;26390;-67
2020/12/27 10:22:09;;;;;;;17.03;5.13;;;;;;;0.05;72.45;99552.80;120216;1147;22985;-62
2020/12/27 10:24:40;;;;;;;18.98;5.62;;;;;;;0.09;73.16;99548.00;120213;1147;23015;-63
2020/12/27 10:27:09;;;;;;;17.52;4.78;;;;;;;0.13;72.68;99540.47;119951;1148;23080;-60
2020/12/27 10:29:38;;;;;;;22.07;5.60;;;;;;;0.19;72.59;99527.03;120090;1148;23035;-61
2020/12/27 10:32:08;;;;;;;19.70;4.50;;;;;;;0.22;72.50;99526.16;120360;1147;23019;-62
2020/12/27 10:34:39;;;;;;;29.15;8.63;;;;;;;0.23;72.08;99512.00;120667;1147;22913;-62
2020/12/27 10:37:09;;;;;;;22.10;5.43;;;;;;;0.27;72.49;99506.45;120367;1148;22932;-62
2020/12/27 10:39:38;;;;;;;19.93;5.20;;;;;;;0.30;72.18;99492.64;120599;1147;22914;-62
2020/12/27 11:22:17;;;;;;;22.50;4.40;;;;;;;1.02;70.68;99347.52;120208;1148;22922;-63
2020/12/27 11:24:49;;;;;;;19.48;4.70;;;;;;;1.04;70.59;99353.35;120550;1148;27401;-60
2020/12/27 11:27:29;;;;;;;20.90;4.33;;;;;;;1.07;69.98;99346.22;120601;1148;23084;-66
2020/12/27 11:30:01;;;;;;;19.87;4.60;;;;;;;1.12;70.06;99340.20;120729;1148;23223;-64
2020/12/27 11:32:34;;;;;;;24.57;5.50;;;;;;;1.18;69.69;99336.45;120532;1148;24588;-62
2020/12/27 11:35:03;;;;;;;20.72;5.15;;;;;;;1.22;70.32;99334.36;120532;1147;26171;-62
2020/12/27 11:37:38;;;;;;;21.20;4.60;;;;;;;1.28;70.22;99320.86;120504;1148;22904;-60
2020/12/27 11:40:08;;;;;;;19.20;4.10;;;;;;;1.31;69.26;99309.75;120423;1147;23239;-61
2020/12/27 11:42:39;;;;;;;21.20;3.72;;;;;;;1.35;68.77;99320.63;120524;1148;26037;-61
2020/12/27 11:45:07;;;;;;;;;;;;;;;1.37;68.92;99307.21;120501;1148;26037;-61
2020/12/27 11:47:37;;;;;;;14.73;2.60;;;;;;;1.41;68.72;99305.12;120626;1148;21579;-62
2020/12/27 11:50:08;;;;;;;15.83;2.03;;;;;;;1.44;69.09;99299.53;120670;1147;22938;-60
2020/12/27 11:52:38;;;;;;;19.70;4.05;;;;;;;1.47;68.55;99281.36;120487;1148;22898;-60
2020/12/27 11:55:08;;;;;;;10.80;2.10;;;;;;;1.51;68.60;99265.54;120613;1147;22952;-60
2020/12/27 11:57:38;;;;;;;11.63;2.43;;;;;;;1.54;68.45;99259.14;120492;1148;22924;-59
2020/12/27 12:00:08;;;;;;;13.67;1.97;;;;;;;1.56;67.96;99237.46;120390;1148;26101;-59
2020/12/27 12:02:39;;;;;;;12.63;2.20;;;;;;;1.59;68.30;99228.34;120583;1148;23933;-59
2020/12/27 12:05:09;;;;;;;16.70;3.70;;;;;;;1.61;67.78;99223.16;120431;1148;24115;-61
2020/12/27 12:07:39;;;;;;;10.97;2.67;;;;;;;1.61;68.32;99226.66;120449;1148;22916;-62
2020/12/27 12:10:09;;;;;;;9.85;1.50;;;;;;;1.63;67.83;99221.48;120446;1148;22886;-60
2020/12/27 12:19:25;;;;;;;9.73;1.57;;;;;;;1.74;65.92;99206.63;121523;1147;28870;-62
2020/12/27 12:21:56;;;;;;;9.63;2.40;;;;;;;1.77;66.94;99205.72;120334;1147;22911;-62
2020/12/27 12:24:27;;;;;;;9.30;2.23;;;;;;;1.81;67.92;99195.36;122290;1147;24717;-62
2020/12/27 12:26:56;;;;;;;9.73;2.15;;;;;;;1.82;67.67;99183.91;120557;1147;22890;-62